Time;durP1;ratioP1;P1;durP2;ratioP2;P2;SDS_P1;SDS_P2;PMS_P1;PMS_P2;Temp;Humidity;BMP_temperature;BMP_pressure;BME280_temperature;BME280_humidity;BME280_pressure;Samples;Min_cycle;Max_cycle;Signal;HPM_P1;HPM_P2
2023/08/02 00:00:35;;;;;;;5.43;1.40;;;15.80;99.90;;;;;;5041472;28;20041;-67
2023/08/02 00:03:01;;;;;;;3.30;1.52;;;15.70;99.90;;;;;;5017702;28;20025;-67
2023/08/02 00:05:28;;;;;;;3.03;1.17;;;15.70;99.90;;;;;;5037550;28;20014;-67
2023/08/02 00:07:54;;;;;;;4.95;1.35;;;15.80;99.90;;;;;;5021467;28;20032;-67
2023/08/02 00:10:20;;;;;;;1.90;1.10;;;15.80;99.90;;;;;;5039437;28;20033;-67
2023/08/02 00:12:45;;;;;;;2.78;1.77;;;15.90;99.90;;;;;;5039560;28;20461;-67
2023/08/02 00:15:12;;;;;;;2.42;1.10;;;15.90;99.90;;;;;;5022538;28;20029;-67
2023/08/02 00:17:37;;;;;;;2.95;1.42;;;15.90;99.90;;;;;;5041319;28;20107;-68
2023/08/02 00:20:04;;;;;;;3.67;1.85;;;15.90;99.90;;;;;;5039945;28;20029;-67
2023/08/02 00:22:30;;;;;;;1.95;0.98;;;16.00;99.90;;;;;;5038827;28;20013;-67
2023/08/02 00:24:55;;;;;;;9.93;1.67;;;15.90;99.90;;;;;;5041217;28;20021;-67
2023/08/02 00:27:21;;;;;;;1.45;0.80;;;16.00;99.90;;;;;;5038896;28;20034;-67
2023/08/02 00:29:49;;;;;;;2.10;1.00;;;15.90;99.90;;;;;;5039997;28;20145;-67
2023/08/02 00:32:14;;;;;;;7.68;1.70;;;15.90;99.90;;;;;;5022509;28;20116;-67
2023/08/02 00:34:40;;;;;;;1.40;1.13;;;15.90;99.90;;;;;;5040470;28;20140;-67
2023/08/02 00:37:06;;;;;;;2.53;1.23;;;15.90;99.90;;;;;;5039712;28;20382;-66
2023/08/02 00:39:32;;;;;;;2.95;1.40;;;15.90;99.90;;;;;;5039113;28;20435;-67
2023/08/02 00:41:57;;;;;;;4.80;1.42;;;15.90;99.90;;;;;;5040907;28;20037;-67
2023/08/02 00:44:23;;;;;;;3.53;1.13;;;16.00;99.90;;;;;;5038702;28;20030;-67
2023/08/02 00:46:49;;;;;;;4.13;0.93;;;15.90;99.90;;;;;;5039687;28;20029;-67
2023/08/02 00:49:14;;;;;;;2.20;0.88;;;15.90;99.90;;;;;;5040691;28;20389;-67
2023/08/02 00:51:40;;;;;;;8.55;1.58;;;15.90;99.90;;;;;;5041677;28;20033;-67
2023/08/02 00:54:06;;;;;;;1.48;0.90;;;15.90;99.90;;;;;;5022923;28;20516;-67
2023/08/02 00:56:32;;;;;;;1.70;0.77;;;15.90;99.90;;;;;;5039303;28;20024;-67
2023/08/02 00:58:58;;;;;;;3.35;0.90;;;15.80;99.90;;;;;;5023168;28;20057;-67
2023/08/02 01:01:25;;;;;;;4.88;1.27;;;15.90;99.90;;;;;;5014294;28;20071;-67
2023/08/02 01:03:51;;;;;;;3.22;1.30;;;15.80;99.90;;;;;;5041617;28;20030;-67
2023/08/02 01:06:51;;;;;;;1.30;0.85;;;15.80;99.90;;;;;;5036524;28;20444;-67
2023/08/02 01:09:29;;;;;;;1.33;0.90;;;15.90;99.90;;;;;;5041899;28;20044;-67
2023/08/02 01:12:07;;;;;;;5.20;1.17;;;15.80;99.90;;;;;;5032090;28;20440;-67
2023/08/02 01:14:36;;;;;;;2.88;1.65;;;15.80;99.90;;;;;;5024465;28;20084;-67
2023/08/02 01:17:03;;;;;;;3.47;1.27;;;15.80;99.90;;;;;;5031665;28;20154;-67
2023/08/02 01:19:31;;;;;;;1.75;0.90;;;15.80;99.90;;;;;;5045234;28;20040;-68
2023/08/02 01:21:56;;;;;;;1.75;1.08;;;15.70;99.90;;;;;;5024016;28;20048;-69
2023/08/02 01:24:33;;;;;;;2.35;0.80;;;15.80;99.90;;;;;;5043215;28;20114;-68
2023/08/02 01:27:07;;;;;;;4.65;0.90;;;15.80;99.90;;;;;;5024291;28;20044;-68
2023/08/02 01:29:37;;;;;;;1.25;0.80;;;15.80;99.90;;;;;;5025219;28;20025;-69
2023/08/02 01:32:05;;;;;;;0.85;0.70;;;15.80;99.90;;;;;;5007545;28;20519;-69
2023/08/02 01:34:31;;;;;;;4.90;1.20;;;15.90;99.90;;;;;;5022538;28;20048;-69
2023/08/02 01:36:57;;;;;;;1.73;1.15;;;16.00;99.90;;;;;;5023622;28;20109;-68
2023/08/02 01:39:23;;;;;;;2.88;0.75;;;16.00;99.90;;;;;;5020574;28;20421;-69
2023/08/02 01:41:48;;;;;;;3.95;1.27;;;16.00;99.90;;;;;;5040026;28;20115;-68
2023/08/02 01:44:14;;;;;;;1.73;0.80;;;15.90;99.90;;;;;;5041289;28;20083;-69
2023/08/02 01:46:40;;;;;;;4.82;0.73;;;16.00;99.90;;;;;;5017687;28;20036;-69
2023/08/02 01:49:05;;;;;;;1.55;0.80;;;16.00;99.90;;;;;;5016425;28;20355;-69
2023/08/02 01:51:31;;;;;;;1.27;0.68;;;15.90;99.90;;;;;;5042546;28;20056;-69
2023/08/02 01:53:57;;;;;;;1.42;0.82;;;15.80;99.90;;;;;;5024786;28;20029;-69
2023/08/02 01:56:22;;;;;;;3.15;1.52;;;15.90;99.90;;;;;;5043374;28;20385;-68
2023/08/02 01:58:48;;;;;;;2.35;1.40;;;15.90;99.90;;;;;;5042395;28;20029;-69
2023/08/02 02:01:14;;;;;;;2.60;1.33;;;15.90;99.90;;;;;;5041589;28;20124;-68
2023/08/02 02:03:39;;;;;;;2.85;1.00;;;15.80;99.90;;;;;;5042626;28;20473;-69
2023/08/02 02:06:05;;;;;;;2.88;1.58;;;15.70;99.90;;;;;;5041686;28;20022;-69
2023/08/02 02:08:31;;;;;;;1.70;0.73;;;15.70;99.90;;;;;;5042174;28;20028;-69
2023/08/02 02:10:57;;;;;;;3.05;1.17;;;15.70;99.90;;;;;;5024914;28;20040;-68
2023/08/02 02:13:24;;;;;;;3.08;1.08;;;15.70;99.90;;;;;;5024093;28;20116;-69
2023/08/02 02:15:50;;;;;;;4.13;0.88;;;15.70;99.90;;;;;;5041523;28;20072;-69
2023/08/02 02:18:16;;;;;;;1.98;1.00;;;15.70;99.90;;;;;;5025146;28;20061;-68
2023/08/02 02:20:42;;;;;;;0.90;0.63;;;15.70;99.90;;;;;;5032064;28;20073;-68
2023/08/02 02:23:08;;;;;;;5.70;1.35;;;15.70;99.90;;;;;;5040870;28;20133;-69
2023/08/02 02:25:34;;;;;;;2.28;1.13;;;15.80;99.90;;;;;;5041359;28;20105;-68
2023/08/02 02:28:00;;;;;;;2.00;1.00;;;15.80;99.90;;;;;;5043189;28;20112;-68
2023/08/02 02:30:25;;;;;;;3.47;0.98;;;15.80;99.90;;;;;;5041485;28;20086;-69
2023/08/02 02:32:52;;;;;;;1.48;0.80;;;15.80;99.90;;;;;;5025677;28;20041;-68
2023/08/02 02:35:18;;;;;;;2.42;1.15;;;15.80;99.90;;;;;;5045961;28;20079;-68
2023/08/02 02:37:44;;;;;;;1.83;0.90;;;15.80;99.90;;;;;;5023133;28;20097;-68
2023/08/02 02:40:10;;;;;;;2.63;1.00;;;15.80;99.90;;;;;;5023338;28;20112;-68
2023/08/02 02:42:40;;;;;;;8.15;2.13;;;15.70;99.90;;;;;;5041813;28;20018;-68
2023/08/02 02:45:10;;;;;;;2.70;1.30;;;15.70;99.90;;;;;;5041167;28;20025;-68
2023/08/02 02:47:36;;;;;;;3.92;0.95;;;15.70;99.90;;;;;;5043265;28;20484;-69
2023/08/02 02:50:02;;;;;;;1.63;1.00;;;15.60;99.90;;;;;;5029161;28;20025;-68
2023/08/02 02:52:28;;;;;;;4.75;1.40;;;15.70;99.90;;;;;;5037952;28;20025;-68
2023/08/02 02:54:54;;;;;;;4.57;1.40;;;15.70;99.90;;;;;;5042190;28;20036;-68
2023/08/02 02:57:20;;;;;;;2.15;1.00;;;15.70;99.90;;;;;;5040561;28;20484;-68
2023/08/02 02:59:45;;;;;;;2.40;1.20;;;15.70;99.90;;;;;;5041905;28;20068;-68
2023/08/02 03:02:11;;;;;;;6.20;1.42;;;15.70;99.90;;;;;;5041270;28;20026;-68
2023/08/02 03:04:37;;;;;;;1.95;0.80;;;15.60;99.90;;;;;;5040820;28;20113;-68
2023/08/02 03:07:03;;;;;;;2.70;1.30;;;15.70;99.90;;;;;;5027419;28;20523;-68
2023/08/02 03:09:29;;;;;;;1.25;0.80;;;15.70;99.90;;;;;;5025216;28;20386;-68
2023/08/02 03:11:55;;;;;;;5.50;1.23;;;15.70;99.90;;;;;;5041849;28;20036;-69
2023/08/02 03:14:21;;;;;;;4.10;1.15;;;15.70;99.90;;;;;;5039868;28;20397;-69
2023/08/02 03:16:47;;;;;;;3.75;1.13;;;15.90;99.90;;;;;;5040630;28;20029;-68
2023/08/02 03:19:13;;;;;;;4.28;1.17;;;15.90;99.90;;;;;;5040579;28;20037;-68
2023/08/02 03:21:39;;;;;;;2.42;1.17;;;15.90;99.90;;;;;;5023914;28;20055;-68
2023/08/02 03:24:05;;;;;;;4.35;1.20;;;15.90;99.90;;;;;;5040696;28;20128;-66
2023/08/02 03:26:31;;;;;;;3.92;1.25;;;15.90;99.90;;;;;;5022962;28;20124;-68
2023/08/02 03:28:57;;;;;;;1.30;0.82;;;15.90;99.90;;;;;;5041670;28;20026;-69
2023/08/02 03:31:23;;;;;;;1.60;1.00;;;15.90;99.90;;;;;;5039956;28;20104;-69
2023/08/02 03:33:48;;;;;;;3.55;0.93;;;15.90;99.90;;;;;;5040247;28;20029;-66
2023/08/02 03:36:15;;;;;;;3.78;1.27;;;15.90;99.90;;;;;;5042239;28;20032;-68
2023/08/02 03:38:42;;;;;;;1.65;1.20;;;16.00;99.90;;;;;;5021548;28;20052;-69
2023/08/02 03:41:08;;;;;;;2.25;1.00;;;16.10;99.90;;;;;;5040775;28;20021;-69
2023/08/02 03:43:34;;;;;;;4.45;1.13;;;16.10;99.90;;;;;;5040065;28;20029;-69
2023/08/02 03:45:59;;;;;;;4.18;1.85;;;16.20;99.90;;;;;;5041729;28;20045;-69
2023/08/02 03:48:28;;;;;;;2.97;1.42;;;16.30;99.90;;;;;;5024441;28;20030;-69
2023/08/02 03:50:55;;;;;;;5.63;1.83;;;16.30;99.90;;;;;;5023715;28;20067;-69
2023/08/02 03:53:21;;;;;;;2.03;1.15;;;16.40;99.90;;;;;;5042885;28;20096;-69
2023/08/02 03:55:46;;;;;;;3.25;1.60;;;16.50;99.90;;;;;;5040887;28;20539;-68
2023/08/02 03:58:12;;;;;;;2.03;1.25;;;16.50;99.90;;;;;;5040915;28;20492;-69
2023/08/02 04:00:38;;;;;;;3.28;1.80;;;16.50;99.90;;;;;;5039346;28;20165;-69
2023/08/02 04:03:03;;;;;;;4.13;1.40;;;16.60;99.90;;;;;;5040728;28;20025;-69
2023/08/02 04:05:29;;;;;;;4.88;1.52;;;16.50;99.90;;;;;;5038341;28;20032;-68
2023/08/02 04:07:55;;;;;;;2.38;1.15;;;16.50;99.90;;;;;;5022391;28;20021;-69
2023/08/02 04:10:21;;;;;;;5.35;1.40;;;16.60;99.90;;;;;;5041460;28;20389;-70
2023/08/02 04:12:49;;;;;;;7.82;1.63;;;16.50;99.90;;;;;;5038964;28;20021;-67
2023/08/02 04:15:15;;;;;;;3.75;1.10;;;16.40;99.90;;;;;;5040634;28;20498;-68
2023/08/02 04:17:41;;;;;;;4.90;1.27;;;16.40;99.90;;;;;;5038988;28;20049;-67
2023/08/02 04:20:07;;;;;;;1.83;1.17;;;16.50;99.90;;;;;;5040672;28;20389;-68
2023/08/02 04:22:33;;;;;;;3.40;1.27;;;16.50;99.90;;;;;;5039695;28;20361;-68
2023/08/02 04:24:59;;;;;;;3.30;1.13;;;16.50;99.90;;;;;;5021356;28;20064;-67
2023/08/02 04:27:25;;;;;;;1.77;0.82;;;16.60;99.90;;;;;;5058354;23;20118;-73
2023/08/02 04:29:50;;;;;;;1.42;0.93;;;16.70;99.90;;;;;;5023990;28;20072;-71
2023/08/02 04:32:16;;;;;;;1.70;1.05;;;16.70;99.90;;;;;;5040109;28;20033;-71
2023/08/02 04:34:42;;;;;;;2.45;1.20;;;16.70;99.90;;;;;;5037473;28;20043;-71
2023/08/02 04:37:07;;;;;;;1.67;0.85;;;16.80;99.90;;;;;;5041782;28;20043;-72
2023/08/02 04:39:33;;;;;;;2.10;0.75;;;16.90;99.90;;;;;;5026513;28;20063;-72
2023/08/02 04:42:02;;;;;;;1.88;0.98;;;16.90;99.90;;;;;;5042873;28;20428;-70
2023/08/02 04:44:28;;;;;;;2.80;1.13;;;16.90;99.90;;;;;;5044151;28;20746;-71
2023/08/02 04:46:54;;;;;;;1.35;0.65;;;16.90;99.90;;;;;;5043872;28;20028;-70
2023/08/02 04:49:20;;;;;;;2.05;1.05;;;17.00;99.90;;;;;;5027585;28;20033;-71
2023/08/02 04:51:45;;;;;;;2.95;0.98;;;17.10;99.90;;;;;;5024698;28;20453;-71
2023/08/02 04:54:11;;;;;;;2.65;1.05;;;17.10;99.90;;;;;;5042769;28;20571;-71
2023/08/02 04:56:38;;;;;;;2.53;0.90;;;17.10;99.90;;;;;;5027647;28;20048;-71
2023/08/02 04:59:07;;;;;;;1.42;0.75;;;17.10;99.90;;;;;;5027195;28;20047;-71
2023/08/02 05:01:33;;;;;;;4.65;1.00;;;17.10;99.90;;;;;;5043467;28;20374;-71
2023/08/02 05:03:58;;;;;;;1.58;0.93;;;17.10;99.90;;;;;;5041951;28;20021;-72
2023/08/02 05:06:24;;;;;;;2.05;0.93;;;17.10;99.90;;;;;;5044632;28;20032;-71
2023/08/02 05:08:50;;;;;;;2.70;1.48;;;17.00;99.90;;;;;;5025193;28;20055;-71
2023/08/02 05:11:16;;;;;;;2.72;0.95;;;16.90;99.90;;;;;;5043179;28;20101;-72
2023/08/02 05:13:41;;;;;;;2.50;0.85;;;16.80;99.90;;;;;;5026080;28;20033;-70
2023/08/02 05:16:13;;;;;;;4.50;1.13;;;16.70;99.90;;;;;;5025050;28;20122;-70
2023/08/02 05:18:39;;;;;;;;;;;16.60;99.90;;;;;;5027637;28;20037;-71
2023/08/02 05:21:13;;;;;;;1.00;0.65;;;16.60;99.90;;;;;;5027425;28;19923;-71
2023/08/02 05:23:40;;;;;;;6.00;1.20;;;16.50;99.90;;;;;;5026687;28;20029;-71
2023/08/02 05:26:07;;;;;;;3.95;0.65;;;16.50;99.90;;;;;;5024164;28;20018;-71
2023/08/02 05:28:34;;;;;;;1.48;0.85;;;16.40;99.90;;;;;;5027237;28;20044;-71
2023/08/02 05:31:00;;;;;;;4.05;1.30;;;16.40;99.90;;;;;;5026911;28;20041;-71
2023/08/02 05:33:26;;;;;;;2.58;1.20;;;16.40;99.90;;;;;;5020974;28;20022;-71
2023/08/02 05:35:52;;;;;;;3.13;1.27;;;16.30;99.90;;;;;;5042902;28;20029;-71
2023/08/02 05:38:18;;;;;;;2.22;0.95;;;16.20;99.90;;;;;;5008780;28;20078;-72
2023/08/02 05:40:43;;;;;;;1.75;1.05;;;16.20;99.90;;;;;;5022904;28;20550;-71
2023/08/02 05:43:09;;;;;;;2.83;1.60;;;16.20;99.90;;;;;;5041516;28;20029;-72
2023/08/02 05:45:35;;;;;;;2.45;1.17;;;16.10;99.90;;;;;;5042331;28;20048;-72
2023/08/02 05:48:01;;;;;;;4.38;2.03;;;16.10;99.90;;;;;;5024615;28;20489;-72
2023/08/02 05:50:29;;;;;;;2.08;1.23;;;16.10;99.90;;;;;;5026003;28;20473;-72
2023/08/02 05:52:55;;;;;;;3.70;1.35;;;16.00;99.90;;;;;;5025522;28;20025;-72
2023/08/02 05:55:21;;;;;;;2.70;1.15;;;16.00;99.90;;;;;;5050854;28;21231;-72
2023/08/02 05:57:49;;;;;;;3.58;1.17;;;16.00;99.90;;;;;;5029163;28;20033;-72
2023/08/02 06:00:16;;;;;;;1.48;0.63;;;15.90;99.90;;;;;;5026705;28;20098;-72
2023/08/02 06:02:42;;;;;;;3.47;1.30;;;15.90;99.90;;;;;;5027572;28;20052;-72
2023/08/02 06:05:08;;;;;;;4.82;1.35;;;15.80;99.90;;;;;;5041592;28;20064;-73
2023/08/02 06:07:34;;;;;;;2.65;1.40;;;15.80;99.90;;;;;;5042548;28;20052;-72
2023/08/02 06:10:00;;;;;;;3.95;1.70;;;15.80;99.90;;;;;;5025093;28;20057;-72
2023/08/02 06:12:26;;;;;;;2.95;1.00;;;15.80;99.90;;;;;;5042631;28;20086;-72
2023/08/02 06:14:51;;;;;;;8.65;1.63;;;15.80;99.90;;;;;;5042277;28;20413;-73
2023/08/02 06:17:17;;;;;;;1.50;0.68;;;15.80;99.90;;;;;;5026203;28;20150;-73
2023/08/02 06:19:43;;;;;;;5.07;1.92;;;15.80;99.90;;;;;;5025867;28;20055;-73
2023/08/02 06:22:09;;;;;;;2.47;1.00;;;15.80;99.90;;;;;;5041317;28;20025;-72
2023/08/02 06:24:35;;;;;;;7.88;1.80;;;15.70;99.90;;;;;;5025298;28;20048;-73
2023/08/02 06:27:01;;;;;;;4.93;1.50;;;15.70;99.90;;;;;;5026086;28;20060;-73
2023/08/02 06:29:27;;;;;;;4.57;2.00;;;15.70;99.90;;;;;;5041088;28;20378;-73
2023/08/02 06:31:52;;;;;;;3.00;1.42;;;15.80;99.90;;;;;;5042497;28;20560;-72
2023/08/02 06:34:18;;;;;;;2.35;1.35;;;15.80;99.90;;;;;;5041537;28;20048;-73
2023/08/02 06:36:44;;;;;;;3.53;1.33;;;15.80;99.90;;;;;;5040800;28;20029;-73
2023/08/02 06:39:10;;;;;;;3.35;1.73;;;15.80;99.90;;;;;;5031050;28;20017;-73
2023/08/02 06:41:35;;;;;;;4.15;1.70;;;15.90;99.90;;;;;;5044966;28;20037;-69
2023/08/02 06:44:01;;;;;;;1.42;0.90;;;15.90;99.90;;;;;;5049101;28;20484;-71
2023/08/02 06:46:29;;;;;;;3.75;1.48;;;15.90;99.90;;;;;;5057345;28;20079;-69
2023/08/02 06:48:55;;;;;;;2.20;1.13;;;15.90;99.90;;;;;;5043567;28;20028;-69
2023/08/02 06:51:20;;;;;;;4.45;1.70;;;16.00;99.90;;;;;;5051980;28;20431;-71
2023/08/02 06:53:46;;;;;;;5.13;1.40;;;15.90;99.90;;;;;;5033370;28;20063;-69
2023/08/02 06:56:16;;;;;;;2.85;1.65;;;15.90;99.90;;;;;;5051752;28;20037;-66
2023/08/02 06:58:43;;;;;;;2.33;1.33;;;16.00;99.90;;;;;;5051724;28;20116;-67
2023/08/02 07:01:18;;;;;;;2.67;1.48;;;16.00;99.90;;;;;;5050460;28;20484;-69
2023/08/02 07:03:45;;;;;;;2.97;1.23;;;16.00;99.90;;;;;;5046075;28;20045;-69
2023/08/02 07:06:16;;;;;;;2.35;1.27;;;16.00;99.90;;;;;;5014021;28;20070;-68
2023/08/02 07:08:43;;;;;;;2.83;1.15;;;16.00;99.90;;;;;;5031624;28;20037;-68
2023/08/02 07:11:09;;;;;;;3.05;1.27;;;16.10;99.90;;;;;;5031719;28;20030;-68
2023/08/02 07:13:36;;;;;;;3.50;1.75;;;16.10;99.90;;;;;;5057269;28;20078;-67
2023/08/02 07:16:04;;;;;;;4.05;2.00;;;16.20;99.90;;;;;;5045955;28;20108;-68
2023/08/02 07:18:30;;;;;;;2.10;1.45;;;16.20;99.90;;;;;;5039010;28;20508;-69
2023/08/02 07:20:56;;;;;;;3.17;1.42;;;16.30;99.90;;;;;;5042071;28;20519;-69
2023/08/02 07:23:22;;;;;;;2.28;1.20;;;16.30;99.90;;;;;;5023051;28;20081;-68
2023/08/02 07:25:48;;;;;;;7.20;2.00;;;16.40;99.90;;;;;;5041932;28;20392;-68
2023/08/02 07:28:14;;;;;;;2.30;1.10;;;16.40;99.90;;;;;;5023801;28;20037;-69
2023/08/02 07:30:40;;;;;;;2.78;1.17;;;16.40;99.90;;;;;;5038858;28;20032;-69
2023/08/02 07:33:05;;;;;;;3.60;1.98;;;16.40;99.90;;;;;;5040178;28;20037;-67
2023/08/02 07:35:36;;;;;;;3.35;1.10;;;16.40;99.90;;;;;;5039484;28;20040;-68
2023/08/02 07:38:02;;;;;;;1.33;0.93;;;16.40;99.90;;;;;;5024729;28;20389;-68
2023/08/02 07:40:28;;;;;;;1.70;0.80;;;16.40;99.90;;;;;;5042386;28;20040;-68
2023/08/02 07:42:54;;;;;;;3.92;1.33;;;16.40;99.90;;;;;;5024141;28;20028;-65
2023/08/02 07:45:20;;;;;;;2.25;1.35;;;16.40;99.90;;;;;;5052973;28;20043;-65
2023/08/02 07:47:45;;;;;;;2.67;1.00;;;16.50;99.90;;;;;;5052877;28;20082;-67
2023/08/02 07:50:11;;;;;;;3.17;1.00;;;16.50;99.90;;;;;;5053101;28;20094;-67
2023/08/02 07:52:37;;;;;;;4.35;1.60;;;16.50;99.90;;;;;;5069979;28;20086;-67
2023/08/02 07:55:03;;;;;;;6.75;1.92;;;16.60;99.90;;;;;;5070873;28;20024;-66
2023/08/02 07:57:34;;;;;;;2.17;0.95;;;16.60;99.90;;;;;;5052894;28;20025;-66
2023/08/02 08:00:00;;;;;;;3.15;1.00;;;16.60;99.90;;;;;;5052667;28;20051;-66
2023/08/02 08:02:27;;;;;;;3.28;1.25;;;16.70;99.90;;;;;;5070380;28;20400;-65
2023/08/02 08:04:56;;;;;;;1.58;0.88;;;16.70;99.90;;;;;;5040568;28;20037;-65
2023/08/02 08:07:22;;;;;;;2.85;1.33;;;16.70;99.90;;;;;;5030933;28;20029;-65
2023/08/02 08:09:50;;;;;;;2.50;1.40;;;16.70;99.90;;;;;;5033317;28;20571;-66
2023/08/02 08:12:16;;;;;;;3.13;0.80;;;16.70;99.90;;;;;;5049436;28;20076;-65
2023/08/02 08:14:42;;;;;;;2.58;1.27;;;16.70;99.90;;;;;;5049741;28;20096;-65
2023/08/02 08:17:08;;;;;;;2.05;1.10;;;16.80;99.90;;;;;;5070445;28;20025;-65
2023/08/02 08:19:34;;;;;;;2.03;0.82;;;16.70;99.90;;;;;;5052463;28;20384;-65
2023/08/02 08:22:00;;;;;;;2.08;1.35;;;16.70;99.90;;;;;;5043622;28;20115;-64
2023/08/02 08:24:26;;;;;;;4.38;1.00;;;16.80;99.90;;;;;;5042308;28;20021;-65
2023/08/02 08:26:57;;;;;;;2.88;1.00;;;16.70;99.90;;;;;;5040638;28;20033;-65
2023/08/02 08:29:23;;;;;;;2.25;0.80;;;16.70;99.90;;;;;;5030574;28;20487;-66
2023/08/02 08:31:49;;;;;;;3.72;1.05;;;16.60;99.90;;;;;;5030761;28;20033;-65
2023/08/02 08:34:14;;;;;;;1.42;0.88;;;16.60;99.90;;;;;;5039658;28;20040;-65
2023/08/02 08:36:40;;;;;;;1.90;0.70;;;16.60;99.90;;;;;;5015407;28;20552;-65
2023/08/02 08:39:06;;;;;;;3.97;1.00;;;16.70;99.90;;;;;;5040394;28;20048;-65
2023/08/02 08:41:32;;;;;;;3.47;1.52;;;16.70;99.90;;;;;;5058245;28;20057;-65
2023/08/02 08:44:01;;;;;;;2.55;1.33;;;16.60;99.90;;;;;;5047796;28;20036;-65
2023/08/02 08:46:30;;;;;;;1.77;1.00;;;16.60;99.90;;;;;;5034087;28;20395;-65
2023/08/02 08:48:58;;;;;;;2.30;1.08;;;16.60;99.90;;;;;;5043681;28;20024;-65
2023/08/02 08:51:26;;;;;;;4.22;1.35;;;16.70;99.90;;;;;;5039870;28;20087;-65
2023/08/02 08:53:54;;;;;;;13.35;1.58;;;16.70;99.90;;;;;;5028684;28;20482;-66
2023/08/02 08:56:27;;;;;;;9.35;1.48;;;16.80;99.90;;;;;;5019832;28;20497;-65
2023/08/02 08:58:53;;;;;;;2.65;1.20;;;16.80;99.90;;;;;;5033483;28;20029;-65
2023/08/02 09:01:20;;;;;;;1.75;0.93;;;16.80;99.90;;;;;;5032402;28;20045;-65
2023/08/02 09:03:46;;;;;;;2.30;1.33;;;16.90;99.90;;;;;;5031839;28;20029;-65
2023/08/02 09:06:15;;;;;;;4.03;1.35;;;16.90;99.90;;;;;;5032509;28;20041;-65
2023/08/02 09:08:44;;;;;;;1.67;1.10;;;17.00;99.90;;;;;;5032492;28;20033;-66
2023/08/02 09:11:11;;;;;;;1.88;1.17;;;17.00;99.90;;;;;;5049929;28;20053;-66
2023/08/02 09:13:37;;;;;;;2.10;1.15;;;17.10;99.90;;;;;;5039789;28;20025;-65
2023/08/02 09:16:08;;;;;;;2.80;1.17;;;17.10;99.90;;;;;;5035747;28;20028;-66
2023/08/02 09:18:42;;;;;;;4.18;1.77;;;17.10;99.90;;;;;;5070215;28;20059;-67
2023/08/02 09:21:15;;;;;;;4.97;1.08;;;17.10;99.90;;;;;;5052446;28;20045;-66
2023/08/02 09:24:01;;;;;;;2.20;0.98;;;17.10;99.90;;;;;;5054044;28;20032;-66
2023/08/02 09:26:27;;;;;;;2.72;1.58;;;17.10;99.90;;;;;;5071988;28;20067;-66
2023/08/02 09:29:06;;;;;;;2.72;1.05;;;17.10;99.90;;;;;;5055635;28;20089;-66
2023/08/02 09:31:35;;;;;;;2.55;1.27;;;17.00;99.90;;;;;;5073421;28;20056;-66
2023/08/02 09:34:02;;;;;;;2.30;1.40;;;17.00;99.90;;;;;;5055131;28;20392;-66
2023/08/02 09:36:34;;;;;;;3.58;1.92;;;17.10;99.90;;;;;;5073475;28;20116;-68
2023/08/02 09:39:01;;;;;;;2.45;1.05;;;17.10;99.90;;;;;;5072193;28;20029;-68
2023/08/02 09:41:28;;;;;;;5.32;1.30;;;17.00;99.90;;;;;;5055564;28;20028;-67
2023/08/02 09:43:55;;;;;;;2.45;1.27;;;17.00;99.90;;;;;;5071320;28;20029;-67
2023/08/02 09:46:28;;;;;;;4.50;1.90;;;17.10;99.90;;;;;;5055428;28;20027;-68
2023/08/02 09:48:59;;;;;;;2.47;1.35;;;17.10;99.90;;;;;;5073070;28;20024;-68
2023/08/02 09:51:42;;;;;;;2.75;1.48;;;17.10;99.90;;;;;;5055481;28;20025;-66
2023/08/02 09:54:13;;;;;;;2.83;1.20;;;17.10;99.90;;;;;;5054567;28;20037;-66
2023/08/02 09:56:41;;;;;;;4.68;1.50;;;17.10;99.90;;;;;;5055628;28;20029;-67
2023/08/02 09:59:08;;;;;;;3.30;1.95;;;17.10;99.90;;;;;;5072877;28;20108;-66
2023/08/02 10:01:36;;;;;;;1.95;1.17;;;17.20;99.90;;;;;;5055227;28;20119;-67
2023/08/02 10:04:15;;;;;;;7.72;1.70;;;17.20;99.90;;;;;;5054394;28;20032;-67
2023/08/02 10:06:49;;;;;;;2.53;1.48;;;17.30;99.90;;;;;;5055006;28;20029;-67
2023/08/02 10:09:20;;;;;;;3.95;1.70;;;17.30;99.90;;;;;;5072651;28;20105;-67
2023/08/02 10:12:03;;;;;;;5.80;1.50;;;17.40;99.90;;;;;;5055075;28;20032;-66
2023/08/02 10:14:31;;;;;;;3.50;1.42;;;17.40;99.90;;;;;;5037534;28;20032;-68
2023/08/02 10:17:02;;;;;;;3.60;1.25;;;17.50;99.90;;;;;;5054768;28;20056;-68
2023/08/02 10:19:29;;;;;;;5.18;1.88;;;17.50;99.90;;;;;;5071146;28;20032;-68
2023/08/02 10:22:05;;;;;;;3.25;1.63;;;17.50;99.90;;;;;;5072724;28;20472;-68
2023/08/02 10:24:32;;;;;;;2.85;1.33;;;17.60;99.90;;;;;;5054838;28;20459;-68
2023/08/02 10:27:04;;;;;;;4.47;1.85;;;17.60;99.90;;;;;;5063512;22;20045;-68
2023/08/02 10:29:33;;;;;;;7.90;2.28;;;17.70;99.90;;;;;;5047131;28;20554;-68
2023/08/02 10:32:12;;;;;;;4.65;2.10;;;17.80;99.90;;;;;;5051218;28;20512;-67
2023/08/02 10:34:38;;;;;;;3.08;1.60;;;17.90;99.90;;;;;;5051315;28;20033;-68
2023/08/02 10:37:04;;;;;;;4.05;2.03;;;17.90;99.90;;;;;;5044637;28;20434;-69
2023/08/02 10:39:56;;;;;;;2.83;1.55;;;18.00;99.90;;;;;;5032313;28;20021;-68
2023/08/02 10:42:26;;;;;;;3.88;1.63;;;18.10;99.90;;;;;;5028439;28;20080;-68
2023/08/02 10:44:55;;;;;;;6.95;1.90;;;18.10;99.90;;;;;;5050845;28;20079;-68
2023/08/02 10:47:33;;;;;;;3.22;1.13;;;18.20;99.90;;;;;;5040899;28;20040;-68
2023/08/02 10:50:02;;;;;;;2.47;1.42;;;18.20;99.90;;;;;;5032328;28;20033;-68
2023/08/02 10:52:33;;;;;;;2.78;1.52;;;18.20;99.90;;;;;;5028381;28;20040;-69
2023/08/02 10:55:18;;;;;;;3.20;1.38;;;18.30;99.90;;;;;;5030483;28;20087;-69
2023/08/02 10:58:07;;;;;;;5.90;1.75;;;18.30;99.90;;;;;;5043352;28;20021;-69
2023/08/02 11:00:37;;;;;;;3.45;1.15;;;18.40;99.90;;;;;;5027863;28;20118;-68
2023/08/02 11:03:03;;;;;;;3.60;1.65;;;18.40;99.90;;;;;;5043578;28;20441;-68
2023/08/02 11:05:43;;;;;;;2.30;0.93;;;18.40;99.90;;;;;;5045088;28;20027;-69
2023/08/02 11:08:10;;;;;;;1.73;0.85;;;18.40;99.90;;;;;;5050650;28;20055;-69
2023/08/02 11:11:05;;;;;;;2.47;1.08;;;18.30;99.90;;;;;;5038855;28;20075;-69
2023/08/02 11:13:39;;;;;;;2.08;1.10;;;18.30;99.90;;;;;;5017002;28;20141;-68
2023/08/02 11:16:06;;;;;;;2.90;0.90;;;18.30;99.90;;;;;;5021074;28;20034;-68
2023/08/02 11:18:33;;;;;;;1.58;0.77;;;18.30;99.90;;;;;;5026678;28;20049;-68
2023/08/02 11:21:13;;;;;;;2.30;1.20;;;18.20;99.90;;;;;;5026941;28;20041;-69
2023/08/02 11:23:39;;;;;;;2.78;1.27;;;18.20;99.90;;;;;;5028115;28;20505;-69
2023/08/02 11:26:23;;;;;;;1.98;1.08;;;18.20;99.90;;;;;;5026772;28;20045;-69
2023/08/02 11:28:52;;;;;;;1.88;1.38;;;18.30;99.90;;;;;;5011689;28;20036;-68
2023/08/02 11:31:21;;;;;;;2.35;1.35;;;18.30;99.90;;;;;;5011773;28;20860;-68
2023/08/02 11:33:47;;;;;;;3.67;1.50;;;18.30;99.90;;;;;;5025646;28;20433;-68
2023/08/02 11:36:13;;;;;;;3.70;1.35;;;18.30;99.90;;;;;;5026222;28;20056;-68
2023/08/02 11:38:39;;;;;;;5.93;1.30;;;18.30;99.90;;;;;;5026603;28;20030;-70
2023/08/02 11:41:20;;;;;;;4.07;1.88;;;18.40;99.90;;;;;;5026653;28;20036;-69
2023/08/02 11:43:48;;;;;;;4.72;1.38;;;18.40;99.90;;;;;;5038600;28;20039;-69
2023/08/02 11:46:24;;;;;;;3.28;1.80;;;18.40;99.90;;;;;;5050236;28;20044;-70
2023/08/02 11:48:50;;;;;;;2.08;1.15;;;18.40;99.90;;;;;;5050929;28;20032;-70
2023/08/02 11:51:19;;;;;;;2.40;1.25;;;18.50;99.90;;;;;;5051163;28;20124;-68
2023/08/02 11:53:57;;;;;;;4.63;1.45;;;18.50;99.90;;;;;;5037330;28;20026;-68
2023/08/02 11:56:24;;;;;;;4.15;1.85;;;18.50;99.90;;;;;;5013916;28;20033;-70
2023/08/02 11:58:51;;;;;;;5.50;1.73;;;18.60;99.90;;;;;;5016203;28;20395;-66
2023/08/02 12:01:18;;;;;;;3.17;1.38;;;18.60;99.90;;;;;;5009039;28;20030;-68
2023/08/02 12:04:05;;;;;;;4.38;2.03;;;18.60;99.90;;;;;;5017653;28;20026;-68
2023/08/02 12:06:52;;;;;;;5.10;1.63;;;18.70;99.90;;;;;;5012714;28;20026;-68
2023/08/02 12:09:19;;;;;;;2.85;1.52;;;18.70;99.90;;;;;;5027854;28;20128;-67
2023/08/02 12:11:54;;;;;;;3.58;1.65;;;18.80;99.90;;;;;;5017122;28;20497;-68
2023/08/02 12:14:30;;;;;;;6.25;2.00;;;18.90;99.90;;;;;;5036544;28;20079;-68
2023/08/02 12:16:56;;;;;;;5.25;1.50;;;19.00;99.90;;;;;;5046374;28;20021;-68
2023/08/02 12:19:40;;;;;;;3.97;2.03;;;19.10;99.90;;;;;;5050775;28;20109;-68
2023/08/02 12:22:06;;;;;;;5.63;1.95;;;19.10;99.90;;;;;;5049559;28;20040;-67
2023/08/02 12:24:32;;;;;;;6.40;2.10;;;19.00;99.90;;;;;;5048514;28;20060;-67
2023/08/02 12:27:17;;;;;;;3.25;2.05;;;19.10;99.90;;;;;;5037761;28;20345;-67
2023/08/02 12:29:44;;;;;;;3.30;1.63;;;19.20;99.90;;;;;;5037596;28;20177;-67
2023/08/02 12:32:26;;;;;;;4.95;2.28;;;19.30;99.90;;;;;;5038036;28;20029;-68
2023/08/02 12:34:52;;;;;;;5.35;2.15;;;19.40;99.90;;;;;;5048816;28;20025;-69
2023/08/02 12:37:17;;;;;;;3.47;1.85;;;19.40;99.90;;;;;;5049242;28;20039;-68
2023/08/02 12:39:44;;;;;;;3.78;1.60;;;19.40;99.90;;;;;;5048294;28;20491;-68
2023/08/02 12:42:10;;;;;;;2.97;1.30;;;19.40;99.90;;;;;;5048501;28;20090;-68
2023/08/02 12:44:35;;;;;;;7.50;2.47;;;19.50;99.90;;;;;;5048043;28;20132;-68
2023/08/02 12:47:01;;;;;;;2.25;1.15;;;19.50;99.90;;;;;;5050051;28;20116;-68
2023/08/02 12:49:27;;;;;;;4.35;1.95;;;19.60;99.90;;;;;;5038061;28;20467;-68
2023/08/02 12:51:53;;;;;;;2.28;1.40;;;19.60;99.90;;;;;;5028871;28;20723;-68